createdAt,value
2023-05-19T00:01:48.656Z,29.98
2023-05-19T00:04:17.061Z,27.52
2023-05-19T00:06:50.351Z,23.48
2023-05-19T00:09:18.621Z,26.08
2023-05-19T00:11:46.895Z,23.38
2023-05-19T00:14:15.157Z,24.77
2023-05-19T00:16:43.801Z,27.10
2023-05-19T00:19:12.968Z,25.48
2023-05-19T00:21:41.237Z,28.55
2023-05-19T00:24:09.033Z,29.10
2023-05-19T00:26:37.943Z,27.38
2023-05-19T00:29:06.013Z,31.92
2023-05-19T00:31:34.445Z,27.02
2023-05-19T00:34:02.420Z,27.63
2023-05-19T00:36:31.676Z,28.42
2023-05-19T00:38:59.472Z,27.35
2023-05-19T00:41:27.158Z,26.23
2023-05-19T00:43:55.364Z,26.02
2023-05-19T00:46:23.184Z,26.58
2023-05-19T00:48:50.937Z,27.08
2023-05-19T00:51:19.064Z,26.70
2023-05-19T00:53:49.005Z,27.42
2023-05-19T00:56:17.505Z,28.13
2023-05-19T00:58:45.793Z,28.00
2023-05-19T01:01:14.080Z,26.52
2023-05-19T01:03:43.827Z,27.85
2023-05-19T01:06:11.824Z,26.17
2023-05-19T01:08:40.568Z,26.73
2023-05-19T01:11:09.745Z,26.83
2023-05-19T01:13:38.644Z,26.33
2023-05-19T01:16:12.567Z,25.40
2023-05-19T01:18:50.808Z,25.65
2023-05-19T01:21:51.911Z,34.58
2023-05-19T01:24:45.429Z,28.03
2023-05-19T01:27:34.194Z,25.90
2023-05-19T01:30:23.023Z,23.80
2023-05-19T01:32:53.822Z,24.63
2023-05-19T01:35:24.316Z,24.63
2023-05-19T01:37:56.283Z,23.17
2023-05-19T01:40:26.649Z,24.23
2023-05-19T01:42:57.695Z,22.23
2023-05-19T01:45:29.103Z,21.42
2023-05-19T01:50:27.102Z,22.75
2023-05-19T01:52:55.570Z,22.00
2023-05-19T01:55:23.877Z,24.00
2023-05-19T01:58:02.370Z,24.65
2023-05-19T02:00:45.127Z,25.45
2023-05-19T02:03:23.923Z,23.77
2023-05-19T02:05:59.433Z,24.95
2023-05-19T02:08:31.043Z,25.10
2023-05-19T02:11:07.336Z,23.73
2023-05-19T02:13:40.600Z,26.80
2023-05-19T02:16:13.376Z,25.58
2023-05-19T02:18:41.222Z,31.65
2023-05-19T02:21:09.057Z,25.73
2023-05-19T02:23:36.910Z,29.65
2023-05-19T02:26:04.942Z,24.67
2023-05-19T02:28:33.000Z,25.00
2023-05-19T02:31:00.703Z,35.38
2023-05-19T02:33:30.110Z,22.60
2023-05-19T02:35:57.972Z,23.98
2023-05-19T02:38:25.788Z,23.13
2023-05-19T02:40:53.667Z,22.50
2023-05-19T02:43:21.399Z,23.45
2023-05-19T02:45:49.041Z,26.00
2023-05-19T02:48:17.225Z,22.65
2023-05-19T02:50:46.696Z,21.77
2023-05-19T02:53:14.344Z,21.98
2023-05-19T02:55:43.190Z,26.48
2023-05-19T02:58:13.425Z,28.85
2023-05-19T03:00:41.526Z,28.90
2023-05-19T03:03:11.818Z,24.42
2023-05-19T03:05:41.199Z,27.23
2023-05-19T03:08:10.188Z,31.95
2023-05-19T03:10:38.064Z,21.30
2023-05-19T03:13:05.988Z,26.40
2023-05-19T03:15:33.777Z,26.40
2023-05-19T03:18:01.701Z,23.88
2023-05-19T03:20:29.814Z,32.95
2023-05-19T03:22:58.196Z,31.52
2023-05-19T03:25:27.536Z,31.67
2023-05-19T03:27:55.447Z,30.70
2023-05-19T03:30:23.594Z,26.05
2023-05-19T03:32:51.717Z,25.55
2023-05-19T03:35:19.524Z,24.92
2023-05-19T03:37:47.288Z,33.10
2023-05-19T03:40:15.100Z,25.48
2023-05-19T03:42:44.246Z,22.80
2023-05-19T03:45:12.004Z,22.20
2023-05-19T03:47:39.825Z,22.10
2023-05-19T03:50:08.384Z,23.90
2023-05-19T03:52:36.351Z,23.67
2023-05-19T03:55:04.674Z,22.85
2023-05-19T03:57:32.390Z,23.63
2023-05-19T04:00:01.432Z,23.83
2023-05-19T04:02:29.336Z,29.73
2023-05-19T04:04:57.486Z,23.15
2023-05-19T04:07:25.341Z,22.38
2023-05-19T04:09:53.203Z,24.67
2023-05-19T04:12:20.906Z,24.35
2023-05-19T04:14:49.731Z,23.30
2023-05-19T04:17:18.861Z,23.35
2023-05-19T04:19:46.663Z,27.98
2023-05-19T04:22:14.736Z,25.55
2023-05-19T04:24:42.968Z,26.63
2023-05-19T04:27:10.704Z,24.92
2023-05-19T04:29:38.392Z,23.90
2023-05-19T04:32:06.504Z,20.77
2023-05-19T04:34:35.707Z,29.83
2023-05-19T04:37:03.373Z,25.63
2023-05-19T04:39:31.377Z,23.02
2023-05-19T04:41:59.030Z,24.02
2023-05-19T04:44:26.689Z,20.90
2023-05-19T04:46:54.680Z,22.08
2023-05-19T04:49:23.140Z,23.35
2023-05-19T04:51:53.363Z,25.30
2023-05-19T04:54:23.799Z,21.67
2023-05-19T04:56:51.434Z,21.70
2023-05-19T04:59:19.066Z,21.65
2023-05-19T05:01:46.988Z,23.83
2023-05-19T05:04:14.778Z,22.42
2023-05-19T05:06:42.426Z,21.27
2023-05-19T05:09:11.970Z,20.83
2023-05-19T05:11:40.182Z,21.60
2023-05-19T05:14:08.509Z,19.63
2023-05-19T05:16:37.115Z,27.42
2023-05-19T05:19:05.382Z,20.52
2023-05-19T05:21:33.706Z,19.25
2023-05-19T05:24:02.349Z,24.48
2023-05-19T05:26:34.296Z,19.33
2023-05-19T05:29:02.457Z,19.92
2023-05-19T05:31:30.315Z,18.45
2023-05-19T05:33:58.370Z,22.15
2023-05-19T05:36:26.363Z,21.80
2023-05-19T05:38:54.147Z,25.05
2023-05-19T05:41:21.783Z,21.17
2023-05-19T05:43:52.379Z,17.42
2023-05-19T05:46:20.015Z,22.92
2023-05-19T05:48:48.121Z,19.17
2023-05-19T05:51:16.761Z,21.45
2023-05-19T05:53:47.415Z,19.65
2023-05-19T05:56:15.665Z,23.13
2023-05-19T05:58:43.535Z,20.38
2023-05-19T06:01:12.619Z,20.17
2023-05-19T06:03:41.310Z,20.83
2023-05-19T06:06:10.649Z,22.40
2023-05-19T06:08:38.285Z,23.60
2023-05-19T06:11:06.058Z,25.15
2023-05-19T06:13:34.081Z,21.63
2023-05-19T06:16:02.295Z,18.92
2023-05-19T06:18:31.672Z,19.40
2023-05-19T06:20:59.765Z,26.58
2023-05-19T06:23:27.431Z,23.58
2023-05-19T06:25:55.037Z,23.88
2023-05-19T06:28:23.184Z,22.88
2023-05-19T06:30:50.817Z,22.52
2023-05-19T06:33:18.485Z,21.90
2023-05-19T06:35:47.917Z,18.40
2023-05-19T06:38:16.249Z,22.50
2023-05-19T06:40:44.024Z,20.17
2023-05-19T06:43:11.917Z,18.30
2023-05-19T06:45:39.517Z,25.90
2023-05-19T06:48:07.238Z,21.98
2023-05-19T06:50:36.149Z,16.95
2023-05-19T06:53:05.294Z,20.90
2023-05-19T06:55:34.388Z,24.77
2023-05-19T06:58:03.562Z,25.70
2023-05-19T07:00:31.473Z,26.70
2023-05-19T07:02:59.307Z,23.85
2023-05-19T07:05:27.278Z,24.83
2023-05-19T07:07:54.907Z,21.58
2023-05-19T07:10:24.138Z,21.67
2023-05-19T07:12:52.102Z,21.02
2023-05-19T07:15:19.764Z,22.60
2023-05-19T07:17:47.564Z,22.13
2023-05-19T07:20:15.513Z,25.23
2023-05-19T07:22:50.712Z,20.33
2023-05-19T07:25:18.849Z,20.23
2023-05-19T07:27:48.094Z,21.27
2023-05-19T07:30:15.713Z,18.17
2023-05-19T07:32:43.932Z,23.98
2023-05-19T07:35:11.678Z,23.48
2023-05-19T07:37:39.468Z,24.05
2023-05-19T07:40:08.699Z,20.42
2023-05-19T07:42:36.406Z,21.15
2023-05-19T07:45:06.660Z,21.25
2023-05-19T07:47:34.857Z,20.15
2023-05-19T07:50:03.118Z,19.58
2023-05-19T07:52:30.899Z,20.40
2023-05-19T07:54:59.524Z,22.77
2023-05-19T07:57:27.372Z,17.95
2023-05-19T07:59:55.211Z,17.33
2023-05-19T08:02:24.982Z,21.52
2023-05-19T08:04:52.862Z,20.75
2023-05-19T08:07:20.682Z,16.00
2023-05-19T08:09:48.693Z,19.20
2023-05-19T08:12:16.378Z,18.83
2023-05-19T08:14:44.005Z,18.27
2023-05-19T08:17:11.949Z,17.15
2023-05-19T08:19:40.984Z,18.77
2023-05-19T08:22:08.706Z,17.58
2023-05-19T08:24:36.883Z,20.00
2023-05-19T08:27:05.166Z,21.77
2023-05-19T08:29:32.974Z,21.30
2023-05-19T08:32:01.042Z,20.05
2023-05-19T08:34:28.704Z,22.05
2023-05-19T08:36:57.827Z,21.77
2023-05-19T08:39:25.853Z,18.58
2023-05-19T08:41:53.647Z,16.10
2023-05-19T08:44:23.038Z,15.15
2023-05-19T08:46:54.818Z,17.52
2023-05-19T08:49:27.874Z,21.02
2023-05-19T08:52:06.252Z,14.57
2023-05-19T08:54:46.700Z,20.35
2023-05-19T08:57:14.833Z,18.77
2023-05-19T08:59:43.815Z,18.88
2023-05-19T09:02:13.367Z,17.38
2023-05-19T09:04:42.381Z,28.20
2023-05-19T09:07:13.076Z,20.13
2023-05-19T09:09:41.016Z,18.65
2023-05-19T09:12:09.128Z,18.17
2023-05-19T09:14:37.230Z,14.73
2023-05-19T09:17:05.130Z,13.35
2023-05-19T09:19:33.383Z,14.23
2023-05-19T09:22:01.874Z,15.95
2023-05-19T09:24:31.670Z,15.50
2023-05-19T09:27:00.446Z,15.38
2023-05-19T09:29:28.228Z,16.55
2023-05-19T09:31:56.535Z,18.17
2023-05-19T09:34:24.495Z,22.10
2023-05-19T09:36:52.538Z,17.25
2023-05-19T09:39:20.800Z,15.52
2023-05-19T09:41:52.370Z,18.65
2023-05-19T09:44:22.825Z,18.77
2023-05-19T09:46:51.222Z,15.85
2023-05-19T09:49:20.707Z,15.48
2023-05-19T09:51:50.559Z,14.38
2023-05-19T09:54:20.494Z,19.48
2023-05-19T09:56:57.809Z,25.30
2023-05-19T09:59:26.152Z,15.73
2023-05-19T10:01:55.206Z,15.93
2023-05-19T10:04:23.800Z,17.30
2023-05-19T10:06:52.253Z,14.75
2023-05-19T10:09:22.757Z,18.77
2023-05-19T10:11:52.898Z,13.70
2023-05-19T10:14:23.236Z,15.57
2023-05-19T10:16:51.812Z,13.10
2023-05-19T10:19:22.586Z,12.95
2023-05-19T10:21:51.546Z,17.05
2023-05-19T10:24:19.632Z,17.50
2023-05-19T10:26:51.843Z,22.60
2023-05-19T10:29:25.588Z,14.77
2023-05-19T10:31:55.864Z,16.90
2023-05-19T10:34:50.565Z,18.00
2023-05-19T10:37:38.382Z,18.17
2023-05-19T10:40:10.947Z,15.55
2023-05-19T10:42:51.281Z,18.00
2023-05-19T10:45:22.878Z,15.98
2023-05-19T10:47:51.452Z,14.57
2023-05-19T10:50:20.785Z,14.85
2023-05-19T10:52:56.061Z,13.70
2023-05-19T10:55:50.036Z,15.05
2023-05-19T10:58:38.910Z,18.08
2023-05-19T11:01:14.187Z,15.70
2023-05-19T11:03:46.801Z,14.50
2023-05-19T11:06:21.569Z,14.68
2023-05-19T11:08:53.573Z,12.52
2023-05-19T11:11:23.291Z,12.23
2023-05-19T11:13:52.466Z,12.45
2023-05-19T11:16:27.328Z,20.70
2023-05-19T11:18:55.886Z,11.18
2023-05-19T11:21:23.668Z,13.18
2023-05-19T11:23:52.170Z,11.25
2023-05-19T11:26:46.634Z,10.45
2023-05-19T11:29:15.303Z,14.50
2023-05-19T11:31:44.737Z,15.40
2023-05-19T11:34:13.243Z,12.45
2023-05-19T11:36:42.042Z,12.05
2023-05-19T11:39:11.456Z,11.27
2023-05-19T11:41:39.514Z,24.92
2023-05-19T11:44:10.425Z,20.92
2023-05-19T11:46:38.534Z,26.17
2023-05-19T11:49:07.766Z,19.38
2023-05-19T11:51:36.703Z,18.98
2023-05-19T11:54:05.254Z,13.63
2023-05-19T11:56:34.611Z,14.40
2023-05-19T11:59:02.382Z,12.93
2023-05-19T12:01:30.413Z,13.40
2023-05-19T12:03:58.202Z,14.40
2023-05-19T12:06:28.224Z,11.60
2023-05-19T12:08:58.099Z,12.48
2023-05-19T12:11:28.175Z,13.77
2023-05-19T12:13:58.909Z,10.07
2023-05-19T12:16:33.833Z,12.70
2023-05-19T12:19:02.274Z,14.45
2023-05-19T12:21:34.109Z,10.95
2023-05-19T12:24:03.414Z,12.98
2023-05-19T12:26:31.317Z,13.05
2023-05-19T12:28:59.420Z,13.77
2023-05-19T12:31:27.604Z,16.27
2023-05-19T12:33:56.272Z,16.83
2023-05-19T12:36:24.520Z,9.27
2023-05-19T12:38:55.625Z,13.75
2023-05-19T12:41:24.875Z,10.00
2023-05-19T12:43:52.524Z,11.35
2023-05-19T12:46:20.360Z,9.38
2023-05-19T12:48:48.166Z,10.60
2023-05-19T12:51:19.608Z,10.30
2023-05-19T12:53:50.008Z,9.73
2023-05-19T12:56:19.307Z,11.50
2023-05-19T12:58:47.017Z,11.23
2023-05-19T13:01:19.849Z,10.90
2023-05-19T13:03:47.850Z,10.07
2023-05-19T13:06:15.868Z,10.40
2023-05-19T13:08:43.712Z,11.57
2023-05-19T13:11:11.517Z,11.80
2023-05-19T13:13:40.589Z,13.77
2023-05-19T13:16:08.566Z,32.22
2023-05-19T13:18:36.268Z,29.00
2023-05-19T13:21:04.392Z,15.85
2023-05-19T13:23:32.270Z,14.45
2023-05-19T13:26:00.351Z,16.10
2023-05-19T13:28:28.035Z,17.90
2023-05-19T13:30:57.386Z,15.45
2023-05-19T13:33:25.384Z,16.42
2023-05-19T13:35:53.041Z,17.02
2023-05-19T13:38:22.335Z,13.10
2023-05-19T13:40:50.026Z,15.70
2023-05-19T13:43:18.165Z,16.08
2023-05-19T13:45:45.861Z,17.80
2023-05-19T13:48:15.181Z,14.80
2023-05-19T13:50:42.993Z,9.77
2023-05-19T13:53:10.905Z,14.23
2023-05-19T13:55:38.958Z,14.27
2023-05-19T13:58:06.830Z,11.93
2023-05-19T14:00:35.180Z,11.63
2023-05-19T14:03:03.994Z,15.23
2023-05-19T14:05:33.180Z,13.65
2023-05-19T14:08:01.002Z,13.85
2023-05-19T14:10:28.836Z,13.85
2023-05-19T14:13:28.950Z,9.32
2023-05-19T14:15:44.375Z,13.25
2023-05-19T14:18:12.137Z,10.73
2023-05-19T14:20:41.588Z,10.85
2023-05-19T14:23:10.786Z,9.05
2023-05-19T14:25:38.424Z,12.73
2023-05-19T14:28:06.104Z,9.68
2023-05-19T14:30:34.620Z,10.80
2023-05-19T14:33:03.266Z,9.20
2023-05-19T14:35:30.967Z,10.82
2023-05-19T14:38:00.247Z,15.20
2023-05-19T14:40:27.916Z,17.08
2023-05-19T14:42:55.653Z,17.00
2023-05-19T14:45:23.676Z,17.80
2023-05-19T14:47:51.293Z,23.95
2023-05-19T14:50:19.140Z,24.33
2023-05-19T14:52:47.273Z,29.05
2023-05-19T14:55:16.578Z,41.72
2023-05-19T14:57:44.386Z,19.30
2023-05-19T15:00:13.712Z,13.68
2023-05-19T15:02:41.462Z,13.25
2023-05-19T15:05:09.546Z,12.55
2023-05-19T15:07:38.190Z,15.65
2023-05-19T15:10:06.645Z,11.10
2023-05-19T15:12:35.915Z,11.80
2023-05-19T15:15:04.386Z,12.90
2023-05-19T15:17:32.287Z,13.30
2023-05-19T15:20:00.170Z,13.07
2023-05-19T15:22:28.253Z,15.68
2023-05-19T15:24:55.849Z,13.65
2023-05-19T15:27:23.606Z,11.48
2023-05-19T15:29:53.160Z,9.23
2023-05-19T15:32:21.090Z,9.00
2023-05-19T15:34:48.819Z,9.48
2023-05-19T15:37:16.765Z,9.82
2023-05-19T15:39:44.444Z,9.10
2023-05-19T15:42:12.117Z,10.57
2023-05-19T15:44:40.132Z,7.85
2023-05-19T15:47:09.169Z,9.43
2023-05-19T15:49:37.030Z,8.48
2023-05-19T15:52:05.280Z,11.63
2023-05-19T15:54:33.060Z,8.93
2023-05-19T15:57:00.813Z,8.82
2023-05-19T15:59:28.909Z,10.77
2023-05-19T16:01:56.616Z,9.70
2023-05-19T16:04:25.930Z,10.07
2023-05-19T16:06:53.866Z,12.10
2023-05-19T16:09:21.623Z,9.38
2023-05-19T16:11:49.314Z,11.48
2023-05-19T16:14:17.277Z,12.10
2023-05-19T16:16:45.021Z,12.75
2023-05-19T16:19:12.752Z,12.43
2023-05-19T16:21:42.061Z,11.38
2023-05-19T16:24:09.679Z,12.63
2023-05-19T16:26:37.284Z,11.18
2023-05-19T16:29:05.401Z,9.82
2023-05-19T16:31:33.219Z,14.13
2023-05-19T16:34:00.885Z,11.50
2023-05-19T16:36:28.871Z,13.70
2023-05-19T16:38:57.975Z,10.27
2023-05-19T16:41:30.408Z,11.57
2023-05-19T16:43:58.268Z,12.48
2023-05-19T16:46:26.414Z,12.00
2023-05-19T16:48:58.505Z,12.35
2023-05-19T16:53:54.110Z,16.08
2023-05-19T16:56:23.395Z,12.82
2023-05-19T16:58:51.314Z,14.20
2023-05-19T17:01:18.955Z,17.95
2023-05-19T17:03:46.797Z,14.23
2023-05-19T17:06:14.670Z,18.05
2023-05-19T17:08:42.340Z,10.98
2023-05-19T17:11:10.209Z,12.15
2023-05-19T17:13:39.532Z,12.77
2023-05-19T17:16:07.395Z,18.83
2023-05-19T17:18:35.364Z,17.05
2023-05-19T17:21:03.244Z,14.50
2023-05-19T17:23:31.046Z,16.70
2023-05-19T17:25:58.895Z,14.20
2023-05-19T17:28:26.641Z,15.80
2023-05-19T17:30:55.758Z,17.48
2023-05-19T17:33:24.195Z,20.45
2023-05-19T17:35:52.166Z,28.35
2023-05-19T17:38:19.772Z,18.05
2023-05-19T17:40:47.565Z,16.88
2023-05-19T17:43:15.352Z,22.17
2023-05-19T17:45:42.990Z,18.52
2023-05-19T17:48:12.430Z,24.65
2023-05-19T17:50:40.306Z,21.52
2023-05-19T17:53:08.606Z,21.63
2023-05-19T17:55:37.413Z,19.25
2023-05-19T17:58:06.534Z,18.13
2023-05-19T18:00:35.169Z,16.90
2023-05-19T18:03:04.145Z,21.98
2023-05-19T18:05:34.859Z,19.30
2023-05-19T18:08:04.652Z,14.02
2023-05-19T18:10:36.572Z,16.58
2023-05-19T18:13:05.349Z,14.80
2023-05-19T18:15:33.805Z,16.00
2023-05-19T18:18:02.133Z,16.27
2023-05-19T18:20:30.419Z,16.77
2023-05-19T18:22:59.535Z,16.02
2023-05-19T18:25:27.321Z,14.20
2023-05-19T18:27:55.196Z,13.90
2023-05-19T18:30:25.840Z,20.02
2023-05-19T18:32:53.544Z,23.27
2023-05-19T18:35:21.441Z,17.15
2023-05-19T18:37:49.354Z,17.23
2023-05-19T18:40:18.581Z,21.50
2023-05-19T18:42:46.382Z,17.42
2023-05-19T18:45:14.402Z,19.35
2023-05-19T18:47:42.123Z,19.33
2023-05-19T18:50:10.686Z,17.65
2023-05-19T18:52:38.702Z,17.42
2023-05-19T18:55:07.507Z,17.33
2023-05-19T18:57:36.727Z,18.88
2023-05-19T19:00:05.846Z,21.20
2023-05-19T19:02:33.869Z,18.38
2023-05-19T19:05:01.859Z,19.23
2023-05-19T19:07:30.093Z,22.88
2023-05-19T19:09:58.158Z,19.73
2023-05-19T19:12:31.099Z,20.67
2023-05-19T19:15:00.935Z,21.45
2023-05-19T19:17:28.833Z,18.90
2023-05-19T19:19:56.816Z,17.35
2023-05-19T19:22:24.704Z,18.33
2023-05-19T19:24:52.321Z,18.70
2023-05-19T19:27:20.121Z,19.70
2023-05-19T19:29:47.814Z,17.23
2023-05-19T19:32:38.450Z,18.63
2023-05-19T19:35:10.221Z,19.40
2023-05-19T19:37:39.331Z,28.30
2023-05-19T19:40:12.170Z,19.83
2023-05-19T19:42:40.485Z,18.65
2023-05-19T19:45:09.208Z,20.17
2023-05-19T19:47:39.798Z,18.05
2023-05-19T19:50:08.701Z,16.75
2023-05-19T19:52:36.794Z,16.30
2023-05-19T19:55:05.305Z,17.90
2023-05-19T19:57:33.126Z,16.80
2023-05-19T20:00:01.041Z,20.05
2023-05-19T20:02:28.993Z,15.52
2023-05-19T20:04:58.248Z,15.90
2023-05-19T20:07:48.205Z,14.70
2023-05-19T20:10:17.461Z,16.77
2023-05-19T20:12:45.458Z,16.77
2023-05-19T20:15:13.157Z,20.48
2023-05-19T20:17:41.407Z,16.88
2023-05-19T20:20:12.066Z,14.38
2023-05-19T20:22:40.374Z,16.17
2023-05-19T20:25:09.146Z,16.25
2023-05-19T20:27:37.251Z,12.48
2023-05-19T20:30:05.957Z,17.15
2023-05-19T20:32:33.893Z,15.60
2023-05-19T20:35:01.716Z,13.63
2023-05-19T20:37:31.026Z,13.48
2023-05-19T20:39:58.911Z,13.45
2023-05-19T20:42:26.512Z,14.65
2023-05-19T20:44:54.267Z,14.38
2023-05-19T20:47:21.989Z,16.60
2023-05-19T20:49:49.835Z,16.23
2023-05-19T20:52:17.764Z,16.08
2023-05-19T20:54:46.776Z,13.35
2023-05-19T20:57:14.495Z,15.20
2023-05-19T20:59:45.764Z,15.02
2023-05-19T21:02:14.081Z,14.00
2023-05-19T21:04:41.933Z,17.08
2023-05-19T21:07:10.028Z,17.65
2023-05-19T21:09:41.989Z,16.77
2023-05-19T21:12:12.787Z,16.02
2023-05-19T21:14:40.647Z,15.27
2023-05-19T21:17:08.487Z,15.20
2023-05-19T21:19:37.747Z,17.70
2023-05-19T21:22:08.903Z,16.38
2023-05-19T21:24:42.922Z,17.80
2023-05-19T21:27:12.485Z,18.23
2023-05-19T21:29:40.373Z,16.38
2023-05-19T21:32:08.445Z,16.42
2023-05-19T21:34:36.530Z,14.50
2023-05-19T21:37:04.532Z,14.73
2023-05-19T21:39:32.427Z,14.35
2023-05-19T21:42:00.063Z,17.60
2023-05-19T21:44:29.410Z,15.88
2023-05-19T21:46:57.385Z,15.95
2023-05-19T21:49:25.308Z,13.57
2023-05-19T21:51:53.078Z,15.02
2023-05-19T21:54:20.913Z,14.48
2023-05-19T21:56:48.627Z,13.20
2023-05-19T21:59:16.376Z,14.15
2023-05-19T22:01:45.821Z,14.98
2023-05-19T22:04:13.464Z,12.18
2023-05-19T22:06:41.212Z,12.35
2023-05-19T22:09:09.169Z,10.30
2023-05-19T22:11:38.060Z,11.80
2023-05-19T22:14:05.912Z,10.35
2023-05-19T22:16:34.067Z,10.00
2023-05-19T22:19:03.226Z,9.60
2023-05-19T22:21:31.128Z,12.00
2023-05-19T22:23:59.003Z,9.43
2023-05-19T22:26:26.696Z,11.80
2023-05-19T22:28:55.933Z,9.32
2023-05-19T22:31:23.998Z,12.85
2023-05-19T22:33:51.755Z,9.82
2023-05-19T22:36:20.976Z,11.25
2023-05-19T22:38:48.884Z,9.93
2023-05-19T22:41:16.561Z,11.68
2023-05-19T22:43:44.445Z,11.40
2023-05-19T22:46:12.251Z,9.52
2023-05-19T22:48:40.013Z,12.52
2023-05-19T22:51:08.030Z,10.15
2023-05-19T22:53:37.571Z,10.98
2023-05-19T22:56:05.656Z,10.18
2023-05-19T22:58:33.676Z,10.65
2023-05-19T23:01:01.416Z,9.70
2023-05-19T23:03:29.213Z,10.70
2023-05-19T23:05:57.013Z,11.82
2023-05-19T23:08:25.042Z,13.20
2023-05-19T23:10:54.098Z,9.88
2023-05-19T23:13:22.342Z,11.05
2023-05-19T23:15:50.065Z,8.93
2023-05-19T23:18:17.890Z,12.00
2023-05-19T23:20:45.706Z,8.45
2023-05-19T23:23:13.704Z,8.38
2023-05-19T23:25:41.414Z,9.80
2023-05-19T23:28:10.560Z,8.95
2023-05-19T23:30:38.696Z,9.30
2023-05-19T23:33:06.379Z,8.27
2023-05-19T23:35:34.476Z,8.80
2023-05-19T23:38:02.599Z,11.30
2023-05-19T23:40:30.293Z,9.38
2023-05-19T23:42:58.161Z,9.38
2023-05-19T23:45:27.457Z,9.77
2023-05-19T23:47:55.120Z,9.80
2023-05-19T23:50:22.863Z,12.13
2023-05-19T23:52:51.009Z,12.18
2023-05-19T23:55:18.753Z,10.60
2023-05-19T23:57:46.606Z,11.52
